Airfield :
LOGIN :

Register | Disclaimer

   EN    FR    IT 

 










Legend :    VFR   Marginal VFR   IFR   Intensive IFR   Very Intensive IFR
Visi :
Ceiling :
>= 8 km
>= 3000ft
5 to 8 km
1000 to 3000 ft
1500m to 5 km
500 to 1000 ft
800 to 1500m
200 to 500 ft
< 800m
< 200 ft
Symbols :   Thunderstorms  Fog  Heavy snow  Heavy precipitations  Wind > 20 kt
SIGMETs :     Misc.  Thunderstorms  Icing  Turbulence  Mountain Waves  Volcanic Ashes







- Airport Elevation : 300 ft
- IATA code : MLA


LMML - Malta Luqa

CURRENT METAR :
  • 272315Z 19004KT 9999 FEW007 20/19 Q1018 NOSIG

EXPIRED METARs :
  • 272245Z 19005KT 9999 BKN005 20/19 Q1018 NOSIG
  • 272215Z 14004KT 9999 FEW012 20/19 Q1018 NOSIG
  • 272145Z 18004KT CAVOK 21/19 Q1018 NOSIG
  • 272115Z 19004KT CAVOK 21/18 Q1018 NOSIG
  • 272045Z 18004KT CAVOK 21/17 Q1018 NOSIG

TAF TAF LMML
Valid from the 28 at 00:00 until the 29 at 00:00 UTC


272300Z 2800/2824 15008KT 9999 FEW008
TEMPO 2800/2805 8000 BKN006
PROB40 2800/2805 3000 BR BKN004
No reported NOTAMs for that airfield.



MET'MAP, your aeronautical weather chart ! - Copyright ORBIFLY December 2007 - Disclaimer

ORBIFLY MET'MAP TEAM :

Programming & Development : Alexandra Zaïnal
Concept & Development : Baudouin d'Aumeries
Co-Development & Prog : Marc-Olivier Méhu
Technical & hardware support : Manuel Goepfert

Contact : metmap@orbifly.com




SOURCES & CREDITS :

   NOAA